Time;durP1;ratioP1;P1;durP2;ratioP2;P2;SDS_P1;SDS_P2;PMS_P1;PMS_P2;Temp;Humidity;BMP_temperature;BMP_pressure;BME280_temperature;BME280_humidity;BME280_pressure;Samples;Min_cycle;Max_cycle;Signal;HPM_P1;HPM_P2
2023/05/25 04:02:12;;;;;;;0.60;0.10;;;10.50;99.90;;;;;;5267811;23;21051;-74
2023/05/25 04:04:40;;;;;;;0.60;0.10;;;10.50;99.90;;;;;;4975872;28;20469;-74
2023/05/25 04:07:08;;;;;;;0.60;0.10;;;10.50;99.90;;;;;;4975446;28;20856;-74
2023/05/25 04:09:39;;;;;;;0.60;0.10;;;10.50;99.90;;;;;;4974455;28;20482;-74
2023/05/25 04:12:07;;;;;;;0.60;0.20;;;10.60;99.90;;;;;;4974660;28;20557;-74
2023/05/25 04:14:35;;;;;;;2.00;0.63;;;10.60;99.90;;;;;;4974697;28;21330;-74
2023/05/25 04:17:03;;;;;;;0.77;0.60;;;10.60;99.90;;;;;;4974984;28;20490;-74
2023/05/25 04:19:32;;;;;;;0.60;0.20;;;10.60;99.90;;;;;;4974639;28;20961;-74
2023/05/25 04:22:00;;;;;;;0.60;0.20;;;10.70;99.90;;;;;;4974647;28;20504;-73
2023/05/25 04:24:28;;;;;;;0.60;0.10;;;10.60;99.90;;;;;;4974914;28;20496;-74
2023/05/25 04:26:56;;;;;;;1.93;1.70;;;10.60;99.90;;;;;;4975007;28;20448;-74
2023/05/25 04:29:24;;;;;;;0.60;0.10;;;10.60;99.90;;;;;;4974968;28;20501;-74
2023/05/25 04:31:53;;;;;;;0.60;0.10;;;;;;;;;;4972297;28;20858;-75
2023/05/25 04:34:22;;;;;;;3.13;2.93;;;10.70;99.90;;;;;;4971572;28;20485;-73
2023/05/25 04:36:52;;;;;;;0.60;0.10;;;;;;;;;;4970847;28;20961;-75
2023/05/25 04:39:20;;;;;;;0.60;0.57;;;10.70;99.90;;;;;;4971581;28;20447;-74
2023/05/25 04:41:48;;;;;;;0.60;0.20;;;10.70;99.90;;;;;;4965465;28;20499;-74
2023/05/25 04:44:16;;;;;;;0.73;0.40;;;10.70;99.90;;;;;;4968994;28;20478;-74
2023/05/25 04:46:44;;;;;;;0.60;0.10;;;10.80;99.90;;;;;;4963027;28;21017;-74
2023/05/25 04:49:13;;;;;;;2.20;2.10;;;10.80;99.90;;;;;;4968915;28;20860;-74
2023/05/25 04:51:40;;;;;;;2.30;2.20;;;10.80;99.90;;;;;;4974299;28;20475;-75
2023/05/25 04:54:10;;;;;;;0.60;0.30;;;10.80;99.90;;;;;;4974282;28;20486;-72
2023/05/25 04:56:37;;;;;;;0.60;0.20;;;10.80;99.90;;;;;;4974156;28;20452;-74
2023/05/25 04:59:06;;;;;;;1.20;1.10;;;10.90;99.90;;;;;;4974177;28;20462;-74
2023/05/25 05:01:39;;;;;;;3.27;0.67;;;10.90;99.90;;;;;;4974752;28;20982;-75
2023/05/25 05:04:07;;;;;;;0.60;0.10;;;11.00;99.90;;;;;;4973749;28;20491;-75
2023/05/25 05:06:36;;;;;;;2.83;1.80;;;;;;;;;;4973873;28;20553;-75
2023/05/25 05:09:04;;;;;;;0.70;0.57;;;10.90;99.90;;;;;;4974554;28;20474;-73
2023/05/25 05:11:33;;;;;;;0.60;0.20;;;11.00;99.90;;;;;;4987295;28;20544;-74
2023/05/25 05:14:01;;;;;;;0.60;0.20;;;11.10;99.90;;;;;;4993131;28;20575;-73
2023/05/25 05:16:33;;;;;;;0.60;0.20;;;11.10;99.90;;;;;;4982167;28;20558;-73
2023/05/25 05:19:01;;;;;;;0.60;0.20;;;11.30;99.90;;;;;;4973429;28;20797;-71
2023/05/25 05:21:29;;;;;;;0.60;0.10;;;11.50;99.90;;;;;;4974493;28;20543;-71
2023/05/25 05:23:57;;;;;;;0.60;0.20;;;11.70;99.90;;;;;;4973461;28;20474;-68
2023/05/25 05:26:26;;;;;;;0.87;0.87;;;11.80;99.90;;;;;;4974274;28;20464;-67
2023/05/25 05:28:55;;;;;;;0.90;0.70;;;11.90;99.90;;;;;;4973433;28;20492;-71
2023/05/25 05:31:24;;;;;;;0.60;0.20;;;11.90;99.90;;;;;;4973289;28;20817;-68
2023/05/25 05:33:52;;;;;;;0.83;0.60;;;;;;;;;;4972957;28;21020;-68
2023/05/25 05:36:20;;;;;;;0.60;0.10;;;12.00;99.90;;;;;;4973476;28;20449;-68
2023/05/25 05:38:48;;;;;;;0.60;0.10;;;12.10;99.90;;;;;;4972348;28;20483;-69
2023/05/25 05:41:16;;;;;;;0.60;0.10;;;12.30;99.90;;;;;;4973028;28;20593;-69
2023/05/25 05:43:45;;;;;;;0.60;0.20;;;12.40;99.90;;;;;;4973107;28;20455;-68
2023/05/25 05:46:14;;;;;;;0.60;0.10;;;12.50;99.90;;;;;;4973402;28;20539;-69
2023/05/25 05:48:42;;;;;;;1.47;1.37;;;12.70;99.90;;;;;;4973296;28;20447;-70
2023/05/25 05:51:10;;;;;;;2.20;2.10;;;;;;;;;;4972883;28;20476;-69
2023/05/25 05:53:38;;;;;;;0.60;0.10;;;12.70;99.90;;;;;;4972201;28;20963;-64
2023/05/25 05:56:06;;;;;;;1.70;0.63;;;12.80;99.90;;;;;;4972595;28;20487;-73
2023/05/25 05:58:34;;;;;;;0.60;0.30;;;12.80;99.90;;;;;;4971191;28;20462;-73
2023/05/25 06:01:03;;;;;;;0.60;0.20;;;12.70;99.90;;;;;;4979971;28;20923;-73
2023/05/25 06:03:32;;;;;;;0.60;0.10;;;12.60;99.90;;;;;;4993072;28;20462;-74
2023/05/25 06:06:00;;;;;;;0.60;0.27;;;12.50;99.90;;;;;;4993495;28;20463;-73
2023/05/25 06:08:28;;;;;;;0.60;0.20;;;12.50;99.90;;;;;;4994436;28;20466;-74
2023/05/25 06:10:56;;;;;;;1.13;0.67;;;12.40;99.90;;;;;;4984509;28;20984;-73
2023/05/25 06:13:24;;;;;;;0.60;0.10;;;12.40;99.90;;;;;;4993189;28;20949;-73
2023/05/25 06:15:52;;;;;;;0.70;0.40;;;12.30;99.90;;;;;;4974156;28;20486;-74
2023/05/25 06:18:20;;;;;;;1.37;0.73;;;12.20;99.90;;;;;;4974353;28;20459;-73
2023/05/25 06:20:49;;;;;;;1.00;0.30;;;12.10;99.90;;;;;;4974211;28;20591;-72
2023/05/25 06:23:17;;;;;;;1.00;0.50;;;;;;;;;;4974074;28;20445;-72
2023/05/25 06:25:46;;;;;;;2.13;1.17;;;12.00;99.90;;;;;;4975258;28;20445;-73
2023/05/25 06:28:15;;;;;;;0.60;0.10;;;12.00;99.90;;;;;;4973766;28;20454;-74
2023/05/25 06:30:43;;;;;;;0.80;0.20;;;12.00;99.90;;;;;;4974158;28;20825;-76
2023/05/25 06:33:10;;;;;;;0.60;0.10;;;12.10;99.90;;;;;;4974798;28;20535;-74
2023/05/25 06:35:38;;;;;;;2.70;0.97;;;12.20;99.90;;;;;;4974078;28;20518;-73
2023/05/25 06:38:08;;;;;;;1.97;1.80;;;12.30;99.90;;;;;;4974264;28;20454;-75
2023/05/25 06:40:35;;;;;;;1.87;1.17;;;12.40;99.90;;;;;;4974253;28;21010;-73
2023/05/25 06:43:04;;;;;;;0.70;0.30;;;12.40;99.90;;;;;;4978177;28;20490;-74
2023/05/25 06:45:32;;;;;;;4.13;2.27;;;12.40;99.90;;;;;;4980189;28;20451;-73
2023/05/25 06:48:00;;;;;;;0.90;0.63;;;12.50;99.90;;;;;;4960955;29;20472;-73
2023/05/25 06:50:28;;;;;;;2.20;1.27;;;12.50;99.90;;;;;;4960425;28;20485;-72
2023/05/25 06:52:56;;;;;;;0.60;0.10;;;12.60;99.90;;;;;;4963513;29;20464;-75
2023/05/25 06:55:28;;;;;;;1.10;0.67;;;12.70;99.90;;;;;;4957438;29;20501;-73
2023/05/25 06:57:56;;;;;;;1.03;0.57;;;12.70;99.90;;;;;;4967530;28;20483;-73
2023/05/25 07:00:24;;;;;;;0.70;0.50;;;12.80;99.90;;;;;;4976506;28;20829;-74
2023/05/25 07:02:52;;;;;;;1.30;0.63;;;14.50;99.90;;;;;;4975519;28;20559;-73
2023/05/25 07:05:20;;;;;;;0.60;0.10;;;12.90;99.90;;;;;;4976489;28;20453;-73
2023/05/25 07:07:48;;;;;;;0.60;0.30;;;12.90;99.90;;;;;;4976555;28;20515;-72
2023/05/25 07:10:17;;;;;;;0.90;0.33;;;13.00;99.90;;;;;;4979310;28;20484;-74
2023/05/25 07:12:46;;;;;;;2.17;1.60;;;13.10;99.90;;;;;;4965309;28;20554;-76
2023/05/25 07:15:15;;;;;;;0.60;0.10;;;13.10;99.90;;;;;;4977105;28;20591;-73
2023/05/25 07:17:43;;;;;;;0.60;0.10;;;13.20;99.90;;;;;;4976391;28;20514;-72
2023/05/25 07:20:11;;;;;;;0.60;0.10;;;13.10;99.90;;;;;;4976627;28;20529;-73
2023/05/25 07:22:40;;;;;;;1.93;0.97;;;13.30;99.90;;;;;;4975760;28;20475;-73
2023/05/25 07:25:09;;;;;;;0.70;0.20;;;13.40;99.90;;;;;;4976560;28;20463;-74
2023/05/25 07:27:37;;;;;;;0.60;0.50;;;13.50;99.90;;;;;;4976168;28;20498;-74
2023/05/25 07:30:08;;;;;;;0.60;0.10;;;13.60;99.90;;;;;;4976762;28;20477;-73
2023/05/25 07:32:37;;;;;;;0.60;0.20;;;13.70;99.90;;;;;;4976254;28;20469;-74
2023/05/25 07:35:06;;;;;;;0.60;0.10;;;13.80;99.90;;;;;;4976012;28;20483;-73
2023/05/25 07:37:34;;;;;;;6.10;3.93;;;13.80;96.30;;;;;;4975973;28;20453;-73
2023/05/25 07:40:02;;;;;;;0.60;0.17;;;13.80;90.10;;;;;;4976321;28;20912;-73
2023/05/25 07:42:33;;;;;;;0.70;0.30;;;13.90;91.30;;;;;;4975866;28;20934;-73
2023/05/25 07:45:00;;;;;;;0.60;0.10;;;14.00;87.60;;;;;;4975866;28;20496;-73
2023/05/25 07:47:30;;;;;;;0.77;0.40;;;14.00;85.30;;;;;;4975633;28;20453;-73
2023/05/25 07:49:58;;;;;;;0.60;0.20;;;14.10;82.40;;;;;;4975784;28;20501;-73
2023/05/25 07:52:25;;;;;;;0.60;0.10;;;14.20;77.70;;;;;;4976130;28;20489;-73
2023/05/25 07:54:53;;;;;;;0.60;0.10;;;14.20;76.40;;;;;;4976418;28;20957;-74
2023/05/25 07:57:21;;;;;;;0.70;0.63;;;14.30;71.70;;;;;;4975934;28;20481;-74
2023/05/25 07:59:49;;;;;;;1.23;0.60;;;14.30;70.10;;;;;;4975769;28;20546;-74
2023/05/25 08:02:17;;;;;;;0.60;0.10;;;14.40;58.20;;;;;;4975225;28;20564;-74
2023/05/25 08:04:46;;;;;;;2.10;1.90;;;14.40;60.00;;;;;;4975759;28;20457;-73
2023/05/25 08:07:14;;;;;;;0.70;0.30;;;14.40;63.80;;;;;;4977390;28;20547;-74
2023/05/25 08:09:42;;;;;;;0.60;0.10;;;14.50;62.60;;;;;;4977296;28;20484;-73
2023/05/25 08:12:10;;;;;;;0.60;0.10;;;14.60;64.20;;;;;;4993902;28;20550;-74
2023/05/25 08:14:58;;;;;;;0.60;0.30;;;14.70;56.40;;;;;;4973862;28;20489;-73
2023/05/25 08:17:26;;;;;;;0.60;0.30;;;14.60;48.00;;;;;;4976425;28;20531;-73
2023/05/25 08:19:56;;;;;;;3.43;2.00;;;14.60;53.60;;;;;;4975566;28;20511;-72
2023/05/25 08:22:24;;;;;;;0.70;0.30;;;14.70;56.80;;;;;;4975261;28;20864;-73
2023/05/25 08:24:52;;;;;;;0.60;0.50;;;14.80;53.60;;;;;;4979093;28;20448;-73
2023/05/25 08:27:20;;;;;;;1.60;1.50;;;14.90;54.80;;;;;;4986246;28;20452;-73
2023/05/25 08:29:48;;;;;;;0.60;0.20;;;15.00;55.00;;;;;;4983430;28;20447;-73
2023/05/25 08:32:16;;;;;;;0.60;0.20;;;15.00;57.10;;;;;;4980768;28;20554;-72
2023/05/25 08:34:44;;;;;;;0.70;0.20;;;15.10;53.20;;;;;;4976257;28;20556;-75
2023/05/25 08:37:13;;;;;;;0.60;0.10;;;15.10;43.00;;;;;;4975404;28;20510;-74
2023/05/25 08:39:47;;;;;;;0.60;0.10;;;15.20;47.60;;;;;;4975974;28;20543;-75
2023/05/25 08:42:14;;;;;;;1.17;0.40;;;15.20;46.40;;;;;;4974802;28;20468;-72
2023/05/25 08:44:42;;;;;;;1.23;0.40;;;15.20;44.00;;;;;;4975287;28;20451;-73
2023/05/25 08:47:14;;;;;;;1.20;1.07;;;15.20;39.80;;;;;;4975634;28;20546;-73
2023/05/25 08:49:44;;;;;;;0.60;0.10;;;15.20;30.10;;;;;;4975595;28;20462;-73
2023/05/25 08:52:14;;;;;;;0.60;0.20;;;15.30;30.00;;;;;;4976309;28;20459;-74
2023/05/25 08:54:44;;;;;;;0.60;0.20;;;15.30;36.10;;;;;;4977113;28;20447;-74
2023/05/25 08:57:17;;;;;;;0.60;0.33;;;15.40;32.90;;;;;;4977760;28;20491;-73
2023/05/25 08:59:49;;;;;;;0.60;0.10;;;15.50;27.40;;;;;;4979655;28;20495;-73
2023/05/25 09:02:23;;;;;;;0.60;0.10;;;15.50;29.20;;;;;;4980382;28;20476;-73
2023/05/25 09:04:52;;;;;;;0.70;0.30;;;15.60;32.80;;;;;;4980895;28;20856;-73
2023/05/25 09:07:21;;;;;;;0.70;0.30;;;15.70;33.90;;;;;;4976382;28;20542;-72
2023/05/25 09:09:50;;;;;;;0.60;0.20;;;15.70;34.70;;;;;;4977303;28;20447;-74
2023/05/25 09:12:18;;;;;;;0.60;0.20;;;15.70;35.90;;;;;;4995590;28;20484;-73
2023/05/25 09:14:46;;;;;;;1.03;0.80;;;15.80;33.30;;;;;;4995644;28;20482;-73
2023/05/25 09:17:15;;;;;;;0.60;0.17;;;15.80;33.30;;;;;;4995402;28;20491;-73
2023/05/25 09:19:44;;;;;;;0.60;0.10;;;15.90;36.20;;;;;;4979627;28;20846;-73
2023/05/25 09:22:12;;;;;;;1.97;1.77;;;;;;;;;;4974944;28;20465;-73
2023/05/25 09:24:45;;;;;;;0.60;0.10;;;16.00;35.70;;;;;;4975439;28;20456;-74
2023/05/25 09:27:17;;;;;;;1.00;0.83;;;16.00;38.70;;;;;;4974815;28;20450;-75
2023/05/25 09:29:47;;;;;;;2.00;1.50;;;16.00;33.80;;;;;;4974969;28;20832;-72
2023/05/25 09:32:15;;;;;;;0.80;0.30;;;16.10;33.20;;;;;;4974634;28;20990;-74
2023/05/25 09:34:43;;;;;;;0.80;0.30;;;16.10;34.90;;;;;;4974822;28;20484;-73
2023/05/25 09:37:12;;;;;;;2.70;2.40;;;16.20;31.40;;;;;;4976025;28;20485;-75
2023/05/25 09:39:41;;;;;;;0.60;0.10;;;16.20;34.10;;;;;;4975916;28;20527;-74
2023/05/25 09:42:11;;;;;;;0.60;0.20;;;16.30;30.40;;;;;;4975277;28;20494;-74
2023/05/25 09:44:41;;;;;;;0.60;0.30;;;16.20;24.60;;;;;;4974786;28;20485;-74
2023/05/25 09:47:12;;;;;;;0.60;0.30;;;16.20;25.80;;;;;;4975793;28;20448;-73
2023/05/25 09:49:41;;;;;;;0.60;0.20;;;16.40;26.60;;;;;;4975511;28;20451;-74
2023/05/25 09:52:09;;;;;;;0.60;0.10;;;16.40;26.30;;;;;;4975185;28;20518;-75
2023/05/25 09:54:38;;;;;;;1.10;0.30;;;16.50;26.00;;;;;;4974793;28;20548;-74
2023/05/25 09:57:06;;;;;;;0.70;0.57;;;16.60;26.40;;;;;;4975176;28;20485;-73
2023/05/25 09:59:36;;;;;;;0.60;0.10;;;16.60;26.10;;;;;;4974774;28;20961;-73
2023/05/25 10:02:04;;;;;;;0.83;0.30;;;16.70;26.90;;;;;;4975195;28;20488;-74
2023/05/25 10:04:32;;;;;;;0.60;0.10;;;16.70;26.40;;;;;;4975002;28;20508;-73
2023/05/25 10:07:01;;;;;;;0.97;0.80;;;;;;;;;;4976056;28;20438;-75
2023/05/25 10:09:30;;;;;;;1.00;0.30;;;;;;;;;;4975397;28;20449;-73
2023/05/25 10:12:00;;;;;;;0.83;0.57;;;16.80;20.10;;;;;;4991478;28;20546;-73
2023/05/25 10:14:29;;;;;;;0.60;0.10;;;16.80;20.50;;;;;;4984500;23;20530;-79
2023/05/25 10:17:00;;;;;;;0.60;0.10;;;17.00;18.20;;;;;;4960369;28;20492;-77
2023/05/25 10:19:33;;;;;;;3.17;2.40;;;17.00;19.30;;;;;;4960720;28;20489;-77
2023/05/25 10:22:06;;;;;;;0.70;0.30;;;17.10;14.80;;;;;;4962577;28;20467;-77
2023/05/25 10:24:42;;;;;;;1.07;0.87;;;17.20;15.30;;;;;;4964327;28;20679;-77
2023/05/25 10:27:15;;;;;;;0.60;0.10;;;17.30;14.90;;;;;;4968914;28;20456;-78
2023/05/25 10:30:05;;;;;;;0.60;0.27;;;17.40;9.30;;;;;;4965492;28;20445;-76
2023/05/25 10:32:36;;;;;;;0.60;0.10;;;17.40;9.40;;;;;;4956516;28;20490;-78
2023/05/25 10:35:05;;;;;;;0.60;0.10;;;17.40;9.60;;;;;;4953747;29;20483;-78
2023/05/25 10:37:34;;;;;;;0.60;0.10;;;17.50;17.00;;;;;;4961700;29;20486;-75
2023/05/25 10:40:07;;;;;;;1.17;0.73;;;17.60;4.70;;;;;;4964101;28;20447;-76
2023/05/25 10:42:36;;;;;;;0.60;0.20;;;17.60;12.30;;;;;;4969437;28;20458;-77
2023/05/25 10:45:07;;;;;;;0.60;0.13;;;17.70;6.50;;;;;;4963163;28;20484;-76
2023/05/25 10:47:40;;;;;;;0.60;0.10;;;17.80;7.70;;;;;;4962345;28;20447;-77
2023/05/25 10:50:19;;;;;;;0.87;0.87;;;17.80;5.20;;;;;;4961483;28;20493;-78
2023/05/25 10:52:58;;;;;;;0.60;0.20;;;18.00;6.10;;;;;;4962963;28;20994;-77
2023/05/25 10:55:30;;;;;;;0.60;0.10;;;17.90;1.00;;;;;;4961162;28;20476;-78
2023/05/25 10:58:09;;;;;;;0.60;0.10;;;17.90;1.00;;;;;;4951208;29;20483;-78
2023/05/25 11:00:37;;;;;;;0.60;0.10;;;17.90;1.00;;;;;;4958006;28;20491;-77
2023/05/25 11:03:07;;;;;;;0.90;0.60;;;17.90;1.20;;;;;;4959963;29;20457;-76
2023/05/25 11:05:39;;;;;;;0.60;0.20;;;17.90;1.90;;;;;;4963537;28;20451;-77
2023/05/25 11:08:08;;;;;;;0.60;0.10;;;18.00;1.00;;;;;;4976545;28;20449;-78
2023/05/25 11:10:53;;;;;;;0.60;0.17;;;18.10;1.00;;;;;;4968951;29;20454;-78
2023/05/25 11:13:37;;;;;;;0.60;0.20;;;18.20;2.20;;;;;;4955017;28;20530;-78
2023/05/25 11:16:16;;;;;;;0.70;0.20;;;18.20;1.00;;;;;;4954526;28;20455;-78
2023/05/25 11:18:50;;;;;;;5.90;0.77;;;18.20;8.10;;;;;;4949647;28;20507;-77
2023/05/25 11:21:42;;;;;;;0.60;0.10;;;18.30;1.00;;;;;;4953930;29;20437;-79
2023/05/25 11:24:17;;;;;;;0.70;0.43;;;18.30;1.00;;;;;;4958789;29;20465;-79
2023/05/25 11:26:57;;;;;;;0.60;0.10;;;18.20;1.00;;;;;;4959369;28;20554;-78
2023/05/25 11:29:25;;;;;;;0.77;0.53;;;18.30;1.00;;;;;;4962811;29;20477;-79
2023/05/25 11:31:55;;;;;;;0.63;0.30;;;18.40;1.00;;;;;;4956773;28;20539;-78
2023/05/25 11:34:25;;;;;;;0.90;0.57;;;;;;;;;;4959537;28;20503;-79
2023/05/25 11:36:56;;;;;;;1.80;1.70;;;18.50;1.00;;;;;;4956944;29;20974;-77
2023/05/25 11:39:24;;;;;;;1.10;0.90;;;18.60;1.00;;;;;;4962507;29;20439;-77
2023/05/25 11:41:55;;;;;;;0.60;0.20;;;18.50;1.00;;;;;;4957525;29;20457;-78
2023/05/25 11:44:28;;;;;;;0.60;0.20;;;18.60;1.00;;;;;;4964948;29;20479;-77
2023/05/25 11:46:57;;;;;;;2.30;2.10;;;18.70;1.00;;;;;;4957969;29;20441;-77
2023/05/25 11:49:27;;;;;;;0.60;0.10;;;;;;;;;;4947657;29;20443;-76
2023/05/25 11:51:57;;;;;;;0.60;0.20;;;18.70;1.60;;;;;;4959292;28;20534;-78
2023/05/25 11:54:26;;;;;;;0.60;0.20;;;18.80;1.00;;;;;;4964352;29;20450;-76
2023/05/25 11:56:57;;;;;;;0.77;0.40;;;18.80;1.00;;;;;;4958205;29;20483;-77
2023/05/25 11:59:26;;;;;;;0.80;0.70;;;18.90;1.00;;;;;;4957092;29;20486;-77
2023/05/25 12:01:59;;;;;;;0.93;0.70;;;19.00;1.00;;;;;;4954811;28;20492;-76
2023/05/25 12:04:29;;;;;;;0.70;0.20;;;19.00;1.00;;;;;;4959390;29;20485;-78
2023/05/25 12:07:02;;;;;;;0.60;0.20;;;19.00;1.60;;;;;;4954030;29;20448;-78
2023/05/25 12:09:30;;;;;;;1.80;1.60;;;19.00;1.00;;;;;;4947301;29;20446;-77
2023/05/25 12:11:59;;;;;;;0.90;0.40;;;19.00;1.00;;;;;;4958949;29;20444;-79
2023/05/25 12:14:27;;;;;;;0.60;0.20;;;19.00;1.00;;;;;;4966122;28;21024;-78
2023/05/25 12:16:56;;;;;;;0.60;0.10;;;19.10;1.00;;;;;;4953566;28;20454;-79
2023/05/25 12:19:24;;;;;;;0.60;0.20;;;19.10;1.00;;;;;;4954084;29;20486;-77
2023/05/25 12:21:54;;;;;;;0.60;0.17;;;19.20;1.00;;;;;;4952359;29;20952;-78
2023/05/25 12:24:22;;;;;;;0.80;0.40;;;19.30;1.00;;;;;;4954466;29;20988;-77
2023/05/25 12:26:56;;;;;;;1.03;0.70;;;19.30;1.00;;;;;;4954894;29;20443;-79
2023/05/25 12:29:24;;;;;;;4.10;1.03;;;;;;;;;;4952768;29;20452;-79
2023/05/25 12:31:52;;;;;;;1.20;0.63;;;19.30;1.10;;;;;;4952835;28;20440;-79
2023/05/25 12:34:21;;;;;;;0.60;0.30;;;19.30;1.00;;;;;;4955057;29;20493;-78
2023/05/25 12:36:50;;;;;;;0.70;0.40;;;22.30;1.00;;;;;;4955079;29;20526;-77
2023/05/25 12:39:37;;;;;;;0.60;0.20;;;19.50;1.00;;;;;;4951617;29;20515;-79
2023/05/25 12:42:12;;;;;;;0.60;0.20;;;19.50;1.00;;;;;;4956590;29;20490;-79
2023/05/25 12:44:40;;;;;;;0.60;0.17;;;19.60;1.00;;;;;;4953831;28;20630;-79
2023/05/25 12:47:12;;;;;;;0.60;0.20;;;19.70;1.00;;;;;;4954583;28;20452;-79
2023/05/25 12:49:43;;;;;;;0.60;0.17;;;19.80;1.00;;;;;;4956234;28;20444;-78
2023/05/25 12:52:31;;;;;;;0.60;0.10;;;19.80;8.00;;;;;;4958737;28;20445;-78
2023/05/25 12:55:19;;;;;;;0.60;0.20;;;19.90;1.00;;;;;;4956324;28;20549;-77
2023/05/25 12:57:51;;;;;;;0.70;0.20;;;19.90;1.00;;;;;;4955102;29;20433;-78
2023/05/25 13:00:20;;;;;;;0.87;0.70;;;19.80;1.00;;;;;;4952414;29;20436;-79
2023/05/25 13:02:49;;;;;;;0.70;0.50;;;19.80;1.00;;;;;;4954583;29;20455;-80
2023/05/25 13:05:19;;;;;;;0.60;0.10;;;19.90;1.00;;;;;;4957178;28;20565;-78
2023/05/25 13:07:47;;;;;;;0.60;0.10;;;20.10;1.00;;;;;;4953275;28;20438;-79
2023/05/25 13:10:17;;;;;;;0.70;0.60;;;20.20;1.00;;;;;;4959236;28;20489;-78
2023/05/25 13:12:46;;;;;;;0.60;0.20;;;;;;;;;;4957008;29;20461;-80
2023/05/25 13:15:19;;;;;;;0.70;0.30;;;20.20;1.00;;;;;;4964407;28;20998;-80
2023/05/25 13:17:52;;;;;;;2.10;1.47;;;20.30;1.00;;;;;;4964261;28;20439;-78
2023/05/25 13:20:22;;;;;;;0.60;0.10;;;20.30;1.00;;;;;;4964547;28;20465;-80
2023/05/25 13:22:55;;;;;;;0.90;0.30;;;20.30;1.00;;;;;;4963183;28;20507;-79
2023/05/25 13:25:27;;;;;;;0.73;0.50;;;20.30;1.00;;;;;;4959598;28;20959;-79
2023/05/25 13:27:59;;;;;;;0.60;0.20;;;20.30;1.00;;;;;;4961378;28;20538;-77
2023/05/25 13:30:28;;;;;;;0.60;0.10;;;20.20;1.00;;;;;;4964299;28;20889;-78
2023/05/25 13:32:55;;;;;;;0.60;0.20;;;20.20;1.00;;;;;;4964445;28;20459;-78
2023/05/25 13:35:36;;;;;;;0.60;0.10;;;20.30;1.00;;;;;;4965763;28;20538;-77
2023/05/25 13:38:10;;;;;;;0.60;0.23;;;;;;;;;;4968068;28;20458;-79
2023/05/25 13:40:42;;;;;;;0.60;0.10;;;20.50;1.00;;;;;;4969484;28;20472;-80
2023/05/25 13:43:13;;;;;;;0.77;0.33;;;20.40;1.00;;;;;;4969417;28;20478;-80
2023/05/25 13:45:41;;;;;;;0.60;0.10;;;;;;;;;;4968390;28;20470;-77
2023/05/25 13:48:10;;;;;;;0.60;0.20;;;20.60;1.00;;;;;;4969455;29;20461;-79
2023/05/25 13:50:38;;;;;;;0.70;0.40;;;20.60;1.00;;;;;;4967517;28;20539;-78
2023/05/25 13:53:06;;;;;;;0.60;0.20;;;20.70;1.00;;;;;;4965654;28;20546;-78
2023/05/25 13:55:34;;;;;;;0.80;0.30;;;;;;;;;;4971183;29;20431;-78
2023/05/25 13:58:07;;;;;;;0.60;0.10;;;20.70;1.00;;;;;;4973624;28;20450;-76
2023/05/25 14:00:35;;;;;;;0.60;0.20;;;20.80;1.00;;;;;;4967797;28;20479;-77
2023/05/25 14:03:03;;;;;;;0.60;0.20;;;20.90;1.00;;;;;;4957703;28;20447;-78
2023/05/25 14:05:31;;;;;;;0.60;0.10;;;20.90;1.00;;;;;;4960584;28;20460;-78
2023/05/25 14:08:03;;;;;;;0.90;0.23;;;20.90;1.00;;;;;;4959782;29;20448;-76
2023/05/25 14:10:31;;;;;;;0.60;0.10;;;;;;;;;;4958854;29;20450;-78
2023/05/25 14:13:00;;;;;;;0.80;0.60;;;;;;;;;;4960952;28;20451;-78
2023/05/25 14:15:29;;;;;;;0.60;0.13;;;;;;;;;;4960027;28;20539;-78
2023/05/25 14:17:57;;;;;;;0.60;0.10;;;21.30;1.00;;;;;;4964139;28;20490;-76
2023/05/25 14:20:25;;;;;;;0.60;0.20;;;21.40;1.00;;;;;;4966880;28;20514;-77
2023/05/25 14:22:54;;;;;;;0.60;0.20;;;;;;;;;;4967037;28;20455;-76
2023/05/25 14:25:22;;;;;;;1.57;1.47;;;21.60;1.00;;;;;;4966287;28;20454;-77
2023/05/25 14:27:50;;;;;;;0.70;0.30;;;21.60;1.00;;;;;;4968021;28;20834;-78
2023/05/25 14:30:19;;;;;;;0.60;0.20;;;;;;;;;;4964289;28;20967;-78
2023/05/25 14:32:49;;;;;;;0.83;0.40;;;;;;;;;;4965629;28;20458;-79
2023/05/25 14:35:17;;;;;;;5.60;0.97;;;21.50;1.00;;;;;;4964765;28;20557;-78
2023/05/25 14:37:45;;;;;;;0.60;0.10;;;21.50;1.00;;;;;;4964765;28;20542;-77
2023/05/25 14:40:14;;;;;;;0.60;0.10;;;;;;;;;;4966719;29;20534;-77
2023/05/25 14:42:41;;;;;;;0.60;0.10;;;21.50;1.00;;;;;;4965996;28;20455;-77
2023/05/25 14:45:10;;;;;;;0.60;0.10;;;;;;;;;;4967022;28;21004;-77
2023/05/25 14:47:42;;;;;;;0.60;0.20;;;;;;;;;;4967040;28;20434;-76
2023/05/25 14:50:11;;;;;;;0.90;0.70;;;21.80;1.00;;;;;;4964946;29;20447;-78
2023/05/25 14:52:40;;;;;;;0.60;0.20;;;21.80;1.00;;;;;;4966710;28;20487;-78
2023/05/25 14:55:09;;;;;;;0.60;0.10;;;21.80;1.00;;;;;;4962560;28;20582;-77
2023/05/25 14:57:37;;;;;;;3.17;1.03;;;21.90;1.00;;;;;;4961790;29;20472;-75
2023/05/25 15:00:06;;;;;;;0.60;0.30;;;21.90;1.00;;;;;;4959086;29;20547;-76
2023/05/25 15:02:34;;;;;;;0.60;0.30;;;21.80;1.00;;;;;;4963966;28;20976;-78
2023/05/25 15:05:02;;;;;;;2.93;0.73;;;21.80;1.00;;;;;;4961836;28;20476;-77
2023/05/25 15:07:32;;;;;;;0.60;0.20;;;;;;;;;;4952378;28;20453;-77
2023/05/25 15:10:00;;;;;;;0.70;0.20;;;21.90;1.00;;;;;;4953487;28;20482;-77
2023/05/25 15:12:28;;;;;;;0.60;0.10;;;22.00;1.00;;;;;;4962755;29;20917;-78
2023/05/25 15:14:56;;;;;;;2.13;0.77;;;22.20;1.00;;;;;;4956110;29;20519;-77
2023/05/25 15:17:24;;;;;;;0.70;0.20;;;22.30;1.00;;;;;;4963538;28;20597;-77
2023/05/25 15:19:51;;;;;;;0.60;0.10;;;22.40;1.00;;;;;;4962445;29;20543;-77
2023/05/25 15:22:20;;;;;;;0.60;0.10;;;22.40;1.00;;;;;;4952840;28;20440;-77
2023/05/25 15:24:49;;;;;;;0.60;0.10;;;22.50;1.00;;;;;;4962398;28;20491;-76
2023/05/25 15:27:17;;;;;;;0.60;0.10;;;22.50;1.00;;;;;;4958531;28;20972;-77
2023/05/25 15:29:45;;;;;;;1.00;0.50;;;22.70;1.00;;;;;;4958369;28;20469;-78
2023/05/25 15:32:16;;;;;;;0.93;0.30;;;22.70;1.00;;;;;;4957791;29;20524;-78
2023/05/25 15:34:45;;;;;;;0.60;0.20;;;;;;;;;;4952751;29;20476;-78
2023/05/25 15:37:13;;;;;;;0.90;0.70;;;22.80;1.00;;;;;;4961357;29;20459;-76
2023/05/25 15:39:54;;;;;;;1.20;0.30;;;;;;;;;;4962112;29;20988;-79
2023/05/25 15:42:23;;;;;;;0.70;0.10;;;22.80;1.00;;;;;;4961972;28;20860;-78
2023/05/25 15:44:51;;;;;;;4.00;3.80;;;22.80;1.00;;;;;;4959269;28;20479;-78
2023/05/25 15:47:20;;;;;;;0.60;0.13;;;;;;;;;;4956635;28;20529;-79
2023/05/25 15:49:48;;;;;;;1.03;0.87;;;;;;;;;;4956083;29;20458;-78
2023/05/25 15:52:16;;;;;;;0.60;0.10;;;22.70;1.00;;;;;;4949467;28;20787;-76
2023/05/25 15:54:46;;;;;;;0.60;0.10;;;22.70;1.00;;;;;;4951000;28;20465;-75
2023/05/25 15:57:17;;;;;;;0.90;0.30;;;22.90;1.00;;;;;;4957348;29;21028;-77
2023/05/25 15:59:47;;;;;;;1.37;0.40;;;22.70;1.00;;;;;;4956629;28;20536;-73
2023/05/25 16:02:18;;;;;;;0.67;0.10;;;22.70;1.00;;;;;;4957905;29;20460;-70
2023/05/25 16:04:46;;;;;;;1.10;0.73;;;23.00;1.00;;;;;;4959139;28;20476;-71
2023/05/25 16:07:14;;;;;;;0.70;0.20;;;23.10;1.00;;;;;;4956458;28;20918;-70
2023/05/25 16:09:42;;;;;;;2.20;0.80;;;23.10;1.00;;;;;;4956226;28;20489;-70
2023/05/25 16:12:10;;;;;;;2.17;1.97;;;23.20;1.00;;;;;;4957333;28;20457;-72
2023/05/25 16:14:39;;;;;;;0.80;0.60;;;23.10;1.00;;;;;;4973050;23;20544;-71
2023/05/25 16:17:08;;;;;;;0.70;0.20;;;22.80;1.00;;;;;;4937865;29;20481;-72
2023/05/25 16:19:36;;;;;;;3.03;1.17;;;22.90;1.00;;;;;;4939187;29;21080;-72
2023/05/25 16:22:04;;;;;;;0.70;0.30;;;23.10;1.00;;;;;;4953816;28;20459;-73
2023/05/25 16:24:32;;;;;;;0.70;0.30;;;23.20;1.00;;;;;;4957325;28;20509;-71
2023/05/25 16:27:01;;;;;;;0.83;0.50;;;23.20;1.00;;;;;;4957739;28;20545;-73
2023/05/25 16:29:29;;;;;;;1.20;0.97;;;23.10;1.00;;;;;;4959343;29;20515;-72
2023/05/25 16:31:57;;;;;;;0.87;0.87;;;;;;;;;;4961455;28;20528;-72
2023/05/25 16:34:27;;;;;;;0.70;0.20;;;23.10;1.00;;;;;;4962043;28;20469;-72
2023/05/25 16:36:55;;;;;;;1.63;0.50;;;;;;;;;;4959280;28;20477;-71
2023/05/25 16:39:23;;;;;;;0.90;0.40;;;23.30;1.00;;;;;;4950416;28;20455;-72
2023/05/25 16:41:51;;;;;;;1.00;0.50;;;23.50;1.00;;;;;;4938548;29;20485;-71
2023/05/25 16:44:18;;;;;;;0.70;0.30;;;23.50;1.00;;;;;;4937906;29;20799;-71
2023/05/25 16:46:46;;;;;;;0.70;0.20;;;23.60;1.00;;;;;;4938527;29;20480;-72
2023/05/25 16:49:15;;;;;;;4.60;1.27;;;;;;;;;;4938454;29;20473;-73
2023/05/25 16:51:44;;;;;;;2.63;0.70;;;23.60;1.00;;;;;;4948212;29;20453;-73
2023/05/25 16:54:14;;;;;;;0.70;0.10;;;23.70;1.00;;;;;;4959190;28;21145;-71
2023/05/25 16:56:41;;;;;;;0.70;0.20;;;23.70;1.00;;;;;;4956807;28;20821;-72
2023/05/25 16:59:10;;;;;;;0.90;0.30;;;;;;;;;;4954044;29;20474;-73
2023/05/25 17:01:38;;;;;;;0.70;0.20;;;;;;;;;;4936023;29;20577;-73
2023/05/25 17:04:06;;;;;;;0.70;0.20;;;;;;;;;;4935802;29;21002;-73
2023/05/25 17:06:35;;;;;;;0.70;0.20;;;;;;;;;;4936096;29;20463;-73
2023/05/25 17:09:04;;;;;;;0.70;0.20;;;24.00;1.00;;;;;;4936954;29;20882;-72
2023/05/25 17:11:32;;;;;;;0.70;0.10;;;24.00;1.00;;;;;;4949386;29;20502;-72
2023/05/25 17:14:01;;;;;;;0.70;0.17;;;;;;;;;;4943021;29;20944;-73
2023/05/25 17:16:29;;;;;;;0.80;0.30;;;;;;;;;;4927362;29;20458;-73
2023/05/25 17:18:57;;;;;;;0.70;0.20;;;;;;;;;;4916985;29;20953;-70